sensor_id;sensor_type;location;lat;lon;timestamp;P1;durP1;ratioP1;P2;durP2;ratioP2
84172;SDS011;74302;40.122;18.310;2024-02-21T00:00:41;8.73;;;4.57;;
84172;SDS011;74302;40.122;18.310;2024-02-21T00:02:24;7.50;;;4.32;;
84172;SDS011;74302;40.122;18.310;2024-02-21T00:04:08;8.48;;;5.40;;
84172;SDS011;74302;40.122;18.310;2024-02-21T00:05:53;10.60;;;4.28;;
84172;SDS011;74302;40.122;18.310;2024-02-21T00:07:37;8.18;;;3.88;;
84172;SDS011;74302;40.122;18.310;2024-02-21T00:11:05;9.23;;;4.10;;
84172;SDS011;74302;40.122;18.310;2024-02-21T00:12:50;6.65;;;3.70;;
84172;SDS011;74302;40.122;18.310;2024-02-21T00:14:33;7.57;;;4.53;;
84172;SDS011;74302;40.122;18.310;2024-02-21T00:16:17;6.72;;;4.10;;
84172;SDS011;74302;40.122;18.310;2024-02-21T00:18:01;7.75;;;4.32;;
84172;SDS011;74302;40.122;18.310;2024-02-21T00:19:44;7.40;;;3.77;;
84172;SDS011;74302;40.122;18.310;2024-02-21T00:21:29;6.45;;;3.50;;
84172;SDS011;74302;40.122;18.310;2024-02-21T00:23:13;7.57;;;4.43;;
84172;SDS011;74302;40.122;18.310;2024-02-21T00:24:57;8.82;;;5.05;;
84172;SDS011;74302;40.122;18.310;2024-02-21T00:26:42;7.38;;;4.88;;
84172;SDS011;74302;40.122;18.310;2024-02-21T00:28:26;7.18;;;3.92;;
84172;SDS011;74302;40.122;18.310;2024-02-21T00:30:10;8.30;;;4.15;;
84172;SDS011;74302;40.122;18.310;2024-02-21T00:31:54;6.63;;;4.22;;
84172;SDS011;74302;40.122;18.310;2024-02-21T00:33:38;5.35;;;3.63;;
84172;SDS011;74302;40.122;18.310;2024-02-21T00:35:22;8.35;;;4.63;;
84172;SDS011;74302;40.122;18.310;2024-02-21T00:37:06;7.00;;;3.95;;
84172;SDS011;74302;40.122;18.310;2024-02-21T00:38:50;9.05;;;5.03;;
84172;SDS011;74302;40.122;18.310;2024-02-21T00:40:34;7.80;;;4.45;;
84172;SDS011;74302;40.122;18.310;2024-02-21T00:42:19;11.05;;;4.85;;
84172;SDS011;74302;40.122;18.310;2024-02-21T00:44:04;6.65;;;3.63;;
84172;SDS011;74302;40.122;18.310;2024-02-21T00:47:32;5.55;;;3.40;;
84172;SDS011;74302;40.122;18.310;2024-02-21T00:49:15;7.40;;;5.35;;
84172;SDS011;74302;40.122;18.310;2024-02-21T00:50:59;8.38;;;4.18;;
84172;SDS011;74302;40.122;18.310;2024-02-21T00:52:42;6.95;;;3.10;;
84172;SDS011;74302;40.122;18.310;2024-02-21T00:56:13;8.85;;;4.18;;
84172;SDS011;74302;40.122;18.310;2024-02-21T00:57:58;10.68;;;4.13;;
84172;SDS011;74302;40.122;18.310;2024-02-21T00:59:42;6.72;;;3.92;;
84172;SDS011;74302;40.122;18.310;2024-02-21T01:01:26;8.43;;;4.93;;
84172;SDS011;74302;40.122;18.310;2024-02-21T01:04:53;6.22;;;3.72;;
84172;SDS011;74302;40.122;18.310;2024-02-21T01:06:37;6.00;;;3.17;;
84172;SDS011;74302;40.122;18.310;2024-02-21T01:08:25;7.90;;;3.58;;
84172;SDS011;74302;40.122;18.310;2024-02-21T01:10:08;8.88;;;4.32;;
84172;SDS011;74302;40.122;18.310;2024-02-21T01:11:52;6.82;;;4.30;;
84172;SDS011;74302;40.122;18.310;2024-02-21T01:13:37;8.15;;;3.72;;
84172;SDS011;74302;40.122;18.310;2024-02-21T01:15:21;16.50;;;3.90;;
84172;SDS011;74302;40.122;18.310;2024-02-21T01:17:04;9.13;;;3.63;;
84172;SDS011;74302;40.122;18.310;2024-02-21T01:18:51;7.53;;;5.00;;
84172;SDS011;74302;40.122;18.310;2024-02-21T01:20:35;10.45;;;4.53;;
84172;SDS011;74302;40.122;18.310;2024-02-21T01:22:19;8.13;;;4.32;;
84172;SDS011;74302;40.122;18.310;2024-02-21T01:24:03;9.75;;;4.80;;
84172;SDS011;74302;40.122;18.310;2024-02-21T01:25:47;10.60;;;5.05;;
84172;SDS011;74302;40.122;18.310;2024-02-21T01:27:31;11.23;;;4.45;;
84172;SDS011;74302;40.122;18.310;2024-02-21T01:29:17;6.65;;;4.15;;
84172;SDS011;74302;40.122;18.310;2024-02-21T01:31:00;6.88;;;3.60;;
84172;SDS011;74302;40.122;18.310;2024-02-21T01:32:45;10.32;;;4.82;;
84172;SDS011;74302;40.122;18.310;2024-02-21T01:34:28;4.97;;;4.22;;
84172;SDS011;74302;40.122;18.310;2024-02-21T01:36:13;9.43;;;4.40;;
84172;SDS011;74302;40.122;18.310;2024-02-21T01:37:57;6.57;;;3.17;;
84172;SDS011;74302;40.122;18.310;2024-02-21T01:39:40;6.95;;;4.43;;
84172;SDS011;74302;40.122;18.310;2024-02-21T01:41:25;8.43;;;4.47;;
84172;SDS011;74302;40.122;18.310;2024-02-21T01:43:15;6.57;;;4.25;;
84172;SDS011;74302;40.122;18.310;2024-02-21T01:45:03;7.40;;;4.60;;
84172;SDS011;74302;40.122;18.310;2024-02-21T01:46:46;5.03;;;3.65;;
84172;SDS011;74302;40.122;18.310;2024-02-21T01:50:15;8.82;;;4.45;;
84172;SDS011;74302;40.122;18.310;2024-02-21T01:51:59;9.45;;;5.05;;
84172;SDS011;74302;40.122;18.310;2024-02-21T01:53:44;6.40;;;4.22;;
84172;SDS011;74302;40.122;18.310;2024-02-21T01:57:12;11.40;;;4.55;;
84172;SDS011;74302;40.122;18.310;2024-02-21T01:58:57;6.90;;;4.93;;
84172;SDS011;74302;40.122;18.310;2024-02-21T02:00:43;7.00;;;4.57;;
84172;SDS011;74302;40.122;18.310;2024-02-21T02:02:27;8.07;;;4.90;;
84172;SDS011;74302;40.122;18.310;2024-02-21T02:04:11;7.18;;;4.07;;
84172;SDS011;74302;40.122;18.310;2024-02-21T02:05:55;7.10;;;4.10;;
84172;SDS011;74302;40.122;18.310;2024-02-21T02:07:39;8.73;;;4.63;;
84172;SDS011;74302;40.122;18.310;2024-02-21T02:09:23;10.43;;;4.60;;
84172;SDS011;74302;40.122;18.310;2024-02-21T02:11:07;6.68;;;4.88;;
84172;SDS011;74302;40.122;18.310;2024-02-21T02:12:50;7.25;;;3.80;;
84172;SDS011;74302;40.122;18.310;2024-02-21T02:16:20;6.95;;;3.95;;
84172;SDS011;74302;40.122;18.310;2024-02-21T02:18:04;8.23;;;4.35;;
84172;SDS011;74302;40.122;18.310;2024-02-21T02:19:47;9.77;;;5.13;;
84172;SDS011;74302;40.122;18.310;2024-02-21T02:21:32;6.38;;;3.50;;
84172;SDS011;74302;40.122;18.310;2024-02-21T02:23:27;7.95;;;5.30;;
84172;SDS011;74302;40.122;18.310;2024-02-21T02:25:11;5.10;;;3.20;;
84172;SDS011;74302;40.122;18.310;2024-02-21T02:28:38;14.23;;;5.22;;
84172;SDS011;74302;40.122;18.310;2024-02-21T02:30:23;5.78;;;3.38;;
84172;SDS011;74302;40.122;18.310;2024-02-21T02:32:07;7.47;;;4.07;;
84172;SDS011;74302;40.122;18.310;2024-02-21T02:33:51;6.70;;;3.45;;
84172;SDS011;74302;40.122;18.310;2024-02-21T02:35:35;5.80;;;3.58;;
84172;SDS011;74302;40.122;18.310;2024-02-21T02:37:18;6.65;;;4.65;;
84172;SDS011;74302;40.122;18.310;2024-02-21T02:39:04;6.57;;;3.92;;
84172;SDS011;74302;40.122;18.310;2024-02-21T02:40:47;7.85;;;3.97;;
84172;SDS011;74302;40.122;18.310;2024-02-21T02:42:31;6.03;;;3.70;;
84172;SDS011;74302;40.122;18.310;2024-02-21T02:44:15;6.97;;;4.25;;
84172;SDS011;74302;40.122;18.310;2024-02-21T02:47:42;7.75;;;4.28;;
84172;SDS011;74302;40.122;18.310;2024-02-21T02:49:27;10.57;;;4.53;;
84172;SDS011;74302;40.122;18.310;2024-02-21T02:51:11;10.10;;;4.18;;
84172;SDS011;74302;40.122;18.310;2024-02-21T02:52:55;7.20;;;3.00;;
84172;SDS011;74302;40.122;18.310;2024-02-21T02:56:23;9.73;;;4.20;;
84172;SDS011;74302;40.122;18.310;2024-02-21T02:58:07;6.53;;;2.65;;
84172;SDS011;74302;40.122;18.310;2024-02-21T02:59:51;6.82;;;3.03;;
84172;SDS011;74302;40.122;18.310;2024-02-21T03:03:20;7.07;;;4.22;;
84172;SDS011;74302;40.122;18.310;2024-02-21T03:05:03;3.58;;;2.25;;
84172;SDS011;74302;40.122;18.310;2024-02-21T03:06:56;5.45;;;2.88;;
84172;SDS011;74302;40.122;18.310;2024-02-21T03:08:39;4.95;;;3.25;;
84172;SDS011;74302;40.122;18.310;2024-02-21T03:10:25;8.18;;;2.70;;
84172;SDS011;74302;40.122;18.310;2024-02-21T03:12:09;5.13;;;2.85;;
84172;SDS011;74302;40.122;18.310;2024-02-21T03:13:52;4.18;;;2.95;;
84172;SDS011;74302;40.122;18.310;2024-02-21T03:17:19;8.98;;;4.53;;
84172;SDS011;74302;40.122;18.310;2024-02-21T03:19:03;6.28;;;2.70;;
84172;SDS011;74302;40.122;18.310;2024-02-21T03:20:47;4.50;;;3.72;;
84172;SDS011;74302;40.122;18.310;2024-02-21T03:22:31;6.32;;;2.80;;
84172;SDS011;74302;40.122;18.310;2024-02-21T03:24:15;8.50;;;4.93;;
84172;SDS011;74302;40.122;18.310;2024-02-21T03:26:00;5.10;;;3.10;;
84172;SDS011;74302;40.122;18.310;2024-02-21T03:27:44;6.60;;;3.45;;
84172;SDS011;74302;40.122;18.310;2024-02-21T03:29:27;7.45;;;3.50;;
84172;SDS011;74302;40.122;18.310;2024-02-21T03:31:12;11.27;;;4.78;;
84172;SDS011;74302;40.122;18.310;2024-02-21T03:34:39;10.88;;;4.90;;
84172;SDS011;74302;40.122;18.310;2024-02-21T03:36:23;5.22;;;3.13;;
84172;SDS011;74302;40.122;18.310;2024-02-21T03:38:07;8.55;;;3.13;;
84172;SDS011;74302;40.122;18.310;2024-02-21T03:39:51;6.82;;;3.30;;
84172;SDS011;74302;40.122;18.310;2024-02-21T03:41:36;6.60;;;2.58;;
84172;SDS011;74302;40.122;18.310;2024-02-21T03:43:20;5.55;;;4.25;;
84172;SDS011;74302;40.122;18.310;2024-02-21T03:45:04;11.20;;;3.42;;
84172;SDS011;74302;40.122;18.310;2024-02-21T03:46:49;6.47;;;3.47;;
84172;SDS011;74302;40.122;18.310;2024-02-21T03:48:32;5.68;;;3.47;;
84172;SDS011;74302;40.122;18.310;2024-02-21T03:50:16;8.10;;;5.60;;
84172;SDS011;74302;40.122;18.310;2024-02-21T03:52:01;8.75;;;4.05;;
84172;SDS011;74302;40.122;18.310;2024-02-21T03:53:44;10.40;;;3.97;;
84172;SDS011;74302;40.122;18.310;2024-02-21T03:55:29;4.47;;;3.10;;
84172;SDS011;74302;40.122;18.310;2024-02-21T03:57:14;7.25;;;3.97;;
84172;SDS011;74302;40.122;18.310;2024-02-21T03:58:59;8.13;;;4.20;;
84172;SDS011;74302;40.122;18.310;2024-02-21T04:02:27;6.13;;;1.98;;
84172;SDS011;74302;40.122;18.310;2024-02-21T04:04:11;6.38;;;3.25;;
84172;SDS011;74302;40.122;18.310;2024-02-21T04:05:56;4.78;;;3.55;;
84172;SDS011;74302;40.122;18.310;2024-02-21T04:07:39;6.38;;;4.40;;
84172;SDS011;74302;40.122;18.310;2024-02-21T04:09:23;6.28;;;3.45;;
84172;SDS011;74302;40.122;18.310;2024-02-21T04:11:06;3.20;;;2.58;;
84172;SDS011;74302;40.122;18.310;2024-02-21T04:12:52;7.97;;;3.40;;
84172;SDS011;74302;40.122;18.310;2024-02-21T04:14:36;5.93;;;3.28;;
84172;SDS011;74302;40.122;18.310;2024-02-21T04:16:22;9.00;;;4.20;;
84172;SDS011;74302;40.122;18.310;2024-02-21T04:18:05;8.55;;;4.40;;
84172;SDS011;74302;40.122;18.310;2024-02-21T04:19:50;5.50;;;4.03;;
84172;SDS011;74302;40.122;18.310;2024-02-21T04:21:35;8.32;;;3.67;;
84172;SDS011;74302;40.122;18.310;2024-02-21T04:23:19;6.85;;;3.08;;
84172;SDS011;74302;40.122;18.310;2024-02-21T04:25:03;10.35;;;5.65;;
84172;SDS011;74302;40.122;18.310;2024-02-21T04:26:47;4.13;;;3.13;;
84172;SDS011;74302;40.122;18.310;2024-02-21T04:28:33;4.60;;;3.15;;
84172;SDS011;74302;40.122;18.310;2024-02-21T04:30:17;6.20;;;4.20;;
84172;SDS011;74302;40.122;18.310;2024-02-21T04:32:01;9.32;;;4.75;;
84172;SDS011;74302;40.122;18.310;2024-02-21T04:33:45;6.93;;;3.42;;
84172;SDS011;74302;40.122;18.310;2024-02-21T04:35:29;5.80;;;3.55;;
84172;SDS011;74302;40.122;18.310;2024-02-21T04:37:13;7.00;;;3.55;;
84172;SDS011;74302;40.122;18.310;2024-02-21T04:38:57;5.50;;;3.92;;
84172;SDS011;74302;40.122;18.310;2024-02-21T04:40:40;7.90;;;3.58;;
84172;SDS011;74302;40.122;18.310;2024-02-21T04:42:25;4.88;;;3.40;;
84172;SDS011;74302;40.122;18.310;2024-02-21T04:44:10;6.88;;;3.88;;
84172;SDS011;74302;40.122;18.310;2024-02-21T04:45:54;7.18;;;4.03;;
84172;SDS011;74302;40.122;18.310;2024-02-21T04:47:38;5.93;;;3.72;;
84172;SDS011;74302;40.122;18.310;2024-02-21T04:49:22;11.45;;;5.53;;
84172;SDS011;74302;40.122;18.310;2024-02-21T04:51:05;9.23;;;4.45;;
84172;SDS011;74302;40.122;18.310;2024-02-21T04:52:50;6.32;;;4.35;;
84172;SDS011;74302;40.122;18.310;2024-02-21T04:54:33;7.72;;;4.03;;
84172;SDS011;74302;40.122;18.310;2024-02-21T04:56:18;5.45;;;3.47;;
84172;SDS011;74302;40.122;18.310;2024-02-21T04:58:02;8.23;;;3.63;;
84172;SDS011;74302;40.122;18.310;2024-02-21T04:59:47;4.40;;;3.17;;
84172;SDS011;74302;40.122;18.310;2024-02-21T05:01:31;5.88;;;3.40;;
84172;SDS011;74302;40.122;18.310;2024-02-21T05:03:14;6.25;;;2.58;;
84172;SDS011;74302;40.122;18.310;2024-02-21T05:04:58;7.15;;;3.88;;
84172;SDS011;74302;40.122;18.310;2024-02-21T05:06:42;3.53;;;2.67;;
84172;SDS011;74302;40.122;18.310;2024-02-21T05:10:10;6.50;;;3.33;;
84172;SDS011;74302;40.122;18.310;2024-02-21T05:11:53;10.48;;;5.25;;
84172;SDS011;74302;40.122;18.310;2024-02-21T05:13:37;16.42;;;4.80;;
84172;SDS011;74302;40.122;18.310;2024-02-21T05:15:22;4.55;;;2.75;;
84172;SDS011;74302;40.122;18.310;2024-02-21T05:17:06;7.43;;;3.38;;
84172;SDS011;74302;40.122;18.310;2024-02-21T05:18:50;7.40;;;4.60;;
84172;SDS011;74302;40.122;18.310;2024-02-21T05:20:34;7.18;;;3.58;;
84172;SDS011;74302;40.122;18.310;2024-02-21T05:22:17;4.72;;;3.38;;
84172;SDS011;74302;40.122;18.310;2024-02-21T05:24:01;5.45;;;3.03;;
84172;SDS011;74302;40.122;18.310;2024-02-21T05:25:45;5.00;;;2.58;;
84172;SDS011;74302;40.122;18.310;2024-02-21T05:27:29;8.45;;;4.45;;
84172;SDS011;74302;40.122;18.310;2024-02-21T05:29:12;6.38;;;3.05;;
84172;SDS011;74302;40.122;18.310;2024-02-21T05:30:58;6.47;;;3.90;;
84172;SDS011;74302;40.122;18.310;2024-02-21T05:32:42;6.07;;;3.13;;
84172;SDS011;74302;40.122;18.310;2024-02-21T05:34:25;4.47;;;3.20;;
84172;SDS011;74302;40.122;18.310;2024-02-21T05:36:09;7.38;;;3.78;;
84172;SDS011;74302;40.122;18.310;2024-02-21T05:37:53;5.55;;;3.05;;
84172;SDS011;74302;40.122;18.310;2024-02-21T05:39:37;5.93;;;3.33;;
84172;SDS011;74302;40.122;18.310;2024-02-21T05:41:21;7.90;;;3.90;;
84172;SDS011;74302;40.122;18.310;2024-02-21T05:43:04;4.53;;;3.10;;
84172;SDS011;74302;40.122;18.310;2024-02-21T05:44:48;6.32;;;3.95;;
84172;SDS011;74302;40.122;18.310;2024-02-21T05:46:34;4.18;;;3.50;;
84172;SDS011;74302;40.122;18.310;2024-02-21T05:48:17;7.20;;;3.63;;
84172;SDS011;74302;40.122;18.310;2024-02-21T05:50:01;5.82;;;3.95;;
84172;SDS011;74302;40.122;18.310;2024-02-21T05:51:45;6.03;;;3.60;;
84172;SDS011;74302;40.122;18.310;2024-02-21T05:53:29;12.30;;;4.65;;
84172;SDS011;74302;40.122;18.310;2024-02-21T05:55:13;6.55;;;3.28;;
84172;SDS011;74302;40.122;18.310;2024-02-21T05:56:57;4.60;;;2.65;;
84172;SDS011;74302;40.122;18.310;2024-02-21T05:58:41;7.15;;;3.63;;
84172;SDS011;74302;40.122;18.310;2024-02-21T06:00:24;7.95;;;3.83;;
84172;SDS011;74302;40.122;18.310;2024-02-21T06:03:52;6.38;;;4.25;;
84172;SDS011;74302;40.122;18.310;2024-02-21T06:05:37;6.55;;;4.38;;
84172;SDS011;74302;40.122;18.310;2024-02-21T06:07:20;5.97;;;3.85;;
84172;SDS011;74302;40.122;18.310;2024-02-21T06:09:04;4.88;;;3.33;;
84172;SDS011;74302;40.122;18.310;2024-02-21T06:10:49;6.80;;;3.78;;
84172;SDS011;74302;40.122;18.310;2024-02-21T06:12:36;6.28;;;3.85;;
84172;SDS011;74302;40.122;18.310;2024-02-21T06:14:20;9.05;;;6.15;;
84172;SDS011;74302;40.122;18.310;2024-02-21T06:16:05;8.20;;;4.30;;
84172;SDS011;74302;40.122;18.310;2024-02-21T06:17:51;6.20;;;4.05;;
84172;SDS011;74302;40.122;18.310;2024-02-21T06:19:35;7.15;;;4.05;;
84172;SDS011;74302;40.122;18.310;2024-02-21T06:21:18;8.07;;;3.88;;
84172;SDS011;74302;40.122;18.310;2024-02-21T06:23:03;8.15;;;5.47;;
84172;SDS011;74302;40.122;18.310;2024-02-21T06:26:31;7.35;;;4.65;;
84172;SDS011;74302;40.122;18.310;2024-02-21T06:28:14;6.07;;;4.00;;
84172;SDS011;74302;40.122;18.310;2024-02-21T06:29:58;9.20;;;5.95;;
84172;SDS011;74302;40.122;18.310;2024-02-21T06:31:41;10.13;;;5.88;;
84172;SDS011;74302;40.122;18.310;2024-02-21T06:33:27;8.07;;;4.75;;
84172;SDS011;74302;40.122;18.310;2024-02-21T06:35:10;6.45;;;4.10;;
84172;SDS011;74302;40.122;18.310;2024-02-21T06:36:54;8.77;;;4.32;;
84172;SDS011;74302;40.122;18.310;2024-02-21T06:38:37;12.20;;;4.40;;
84172;SDS011;74302;40.122;18.310;2024-02-21T06:40:21;8.70;;;4.90;;
84172;SDS011;74302;40.122;18.310;2024-02-21T06:42:06;9.48;;;4.32;;
84172;SDS011;74302;40.122;18.310;2024-02-21T06:43:50;6.07;;;4.53;;
84172;SDS011;74302;40.122;18.310;2024-02-21T06:45:34;8.70;;;4.80;;
84172;SDS011;74302;40.122;18.310;2024-02-21T06:47:18;11.45;;;5.13;;
84172;SDS011;74302;40.122;18.310;2024-02-21T06:49:04;21.27;;;6.80;;
84172;SDS011;74302;40.122;18.310;2024-02-21T06:50:47;10.48;;;6.80;;
84172;SDS011;74302;40.122;18.310;2024-02-21T06:52:32;6.30;;;3.85;;
84172;SDS011;74302;40.122;18.310;2024-02-21T06:54:16;5.28;;;2.83;;
84172;SDS011;74302;40.122;18.310;2024-02-21T06:56:00;6.55;;;3.30;;
84172;SDS011;74302;40.122;18.310;2024-02-21T06:59:27;10.57;;;5.25;;
84172;SDS011;74302;40.122;18.310;2024-02-21T07:01:11;6.30;;;3.78;;
84172;SDS011;74302;40.122;18.310;2024-02-21T07:02:54;8.88;;;5.03;;
84172;SDS011;74302;40.122;18.310;2024-02-21T07:04:40;13.43;;;5.40;;
84172;SDS011;74302;40.122;18.310;2024-02-21T07:06:25;6.50;;;3.60;;
84172;SDS011;74302;40.122;18.310;2024-02-21T07:08:10;8.48;;;4.22;;
84172;SDS011;74302;40.122;18.310;2024-02-21T07:09:53;8.02;;;4.85;;
84172;SDS011;74302;40.122;18.310;2024-02-21T07:11:37;12.35;;;5.50;;
84172;SDS011;74302;40.122;18.310;2024-02-21T07:13:21;8.57;;;4.88;;
84172;SDS011;74302;40.122;18.310;2024-02-21T07:15:05;8.32;;;5.10;;
84172;SDS011;74302;40.122;18.310;2024-02-21T07:16:49;8.40;;;4.85;;
84172;SDS011;74302;40.122;18.310;2024-02-21T07:20:18;8.15;;;5.68;;
84172;SDS011;74302;40.122;18.310;2024-02-21T07:22:02;7.65;;;4.45;;
84172;SDS011;74302;40.122;18.310;2024-02-21T07:23:46;7.28;;;4.13;;
84172;SDS011;74302;40.122;18.310;2024-02-21T07:27:13;7.55;;;3.70;;
84172;SDS011;74302;40.122;18.310;2024-02-21T07:28:58;10.63;;;5.18;;
84172;SDS011;74302;40.122;18.310;2024-02-21T07:30:43;7.63;;;4.95;;
84172;SDS011;74302;40.122;18.310;2024-02-21T07:32:27;6.82;;;3.75;;
84172;SDS011;74302;40.122;18.310;2024-02-21T07:34:11;7.25;;;4.38;;
84172;SDS011;74302;40.122;18.310;2024-02-21T07:35:56;8.10;;;3.95;;
84172;SDS011;74302;40.122;18.310;2024-02-21T07:37:39;8.68;;;4.05;;
84172;SDS011;74302;40.122;18.310;2024-02-21T07:39:24;8.57;;;4.18;;
84172;SDS011;74302;40.122;18.310;2024-02-21T07:41:07;7.63;;;3.67;;
84172;SDS011;74302;40.122;18.310;2024-02-21T07:42:51;9.10;;;4.20;;
84172;SDS011;74302;40.122;18.310;2024-02-21T07:44:35;5.55;;;3.00;;
84172;SDS011;74302;40.122;18.310;2024-02-21T07:46:19;7.72;;;3.30;;
84172;SDS011;74302;40.122;18.310;2024-02-21T07:48:03;5.68;;;3.10;;
84172;SDS011;74302;40.122;18.310;2024-02-21T07:49:48;6.68;;;3.78;;
84172;SDS011;74302;40.122;18.310;2024-02-21T07:51:32;6.65;;;3.47;;
84172;SDS011;74302;40.122;18.310;2024-02-21T07:53:19;7.35;;;3.50;;
84172;SDS011;74302;40.122;18.310;2024-02-21T07:55:04;8.05;;;3.53;;
84172;SDS011;74302;40.122;18.310;2024-02-21T07:56:47;6.22;;;3.33;;
84172;SDS011;74302;40.122;18.310;2024-02-21T07:58:31;7.22;;;3.63;;
84172;SDS011;74302;40.122;18.310;2024-02-21T08:00:16;4.90;;;2.83;;
84172;SDS011;74302;40.122;18.310;2024-02-21T08:02:03;6.97;;;3.65;;
84172;SDS011;74302;40.122;18.310;2024-02-21T08:03:49;6.45;;;3.95;;
84172;SDS011;74302;40.122;18.310;2024-02-21T08:05:34;6.78;;;3.67;;
84172;SDS011;74302;40.122;18.310;2024-02-21T08:07:19;5.63;;;3.08;;
84172;SDS011;74302;40.122;18.310;2024-02-21T08:09:02;6.53;;;3.85;;
84172;SDS011;74302;40.122;18.310;2024-02-21T08:10:47;5.72;;;3.25;;
84172;SDS011;74302;40.122;18.310;2024-02-21T08:12:32;5.68;;;3.00;;
84172;SDS011;74302;40.122;18.310;2024-02-21T08:14:15;7.55;;;3.65;;
84172;SDS011;74302;40.122;18.310;2024-02-21T08:16:01;4.22;;;2.67;;
84172;SDS011;74302;40.122;18.310;2024-02-21T08:19:29;7.10;;;3.53;;
84172;SDS011;74302;40.122;18.310;2024-02-21T08:21:12;7.40;;;3.25;;
84172;SDS011;74302;40.122;18.310;2024-02-21T08:22:58;5.93;;;2.88;;
84172;SDS011;74302;40.122;18.310;2024-02-21T08:24:42;8.70;;;3.72;;
84172;SDS011;74302;40.122;18.310;2024-02-21T08:26:25;6.43;;;2.75;;
84172;SDS011;74302;40.122;18.310;2024-02-21T08:28:13;6.25;;;3.03;;
84172;SDS011;74302;40.122;18.310;2024-02-21T08:29:57;4.00;;;2.40;;
84172;SDS011;74302;40.122;18.310;2024-02-21T08:31:41;4.60;;;2.20;;
84172;SDS011;74302;40.122;18.310;2024-02-21T08:33:25;5.70;;;3.17;;
84172;SDS011;74302;40.122;18.310;2024-02-21T08:35:11;5.40;;;3.03;;
84172;SDS011;74302;40.122;18.310;2024-02-21T08:36:56;9.05;;;2.83;;
84172;SDS011;74302;40.122;18.310;2024-02-21T08:38:41;4.57;;;2.60;;
84172;SDS011;74302;40.122;18.310;2024-02-21T08:40:25;6.05;;;2.63;;
84172;SDS011;74302;40.122;18.310;2024-02-21T08:42:08;3.85;;;2.20;;
84172;SDS011;74302;40.122;18.310;2024-02-21T08:45:36;4.97;;;2.25;;
84172;SDS011;74302;40.122;18.310;2024-02-21T08:47:22;4.45;;;2.05;;
84172;SDS011;74302;40.122;18.310;2024-02-21T08:49:06;3.40;;;1.75;;
84172;SDS011;74302;40.122;18.310;2024-02-21T08:50:49;3.03;;;1.65;;
84172;SDS011;74302;40.122;18.310;2024-02-21T08:54:18;3.42;;;1.58;;
84172;SDS011;74302;40.122;18.310;2024-02-21T08:56:02;5.88;;;2.28;;
84172;SDS011;74302;40.122;18.310;2024-02-21T08:57:46;7.25;;;2.88;;
84172;SDS011;74302;40.122;18.310;2024-02-21T09:01:14;4.05;;;1.85;;
84172;SDS011;74302;40.122;18.310;2024-02-21T09:04:41;7.78;;;2.20;;
84172;SDS011;74302;40.122;18.310;2024-02-21T09:06:26;4.10;;;2.03;;
84172;SDS011;74302;40.122;18.310;2024-02-21T09:08:10;3.35;;;2.17;;
84172;SDS011;74302;40.122;18.310;2024-02-21T09:11:38;4.63;;;2.38;;
84172;SDS011;74302;40.122;18.310;2024-02-21T09:13:23;3.42;;;2.13;;
84172;SDS011;74302;40.122;18.310;2024-02-21T09:15:06;9.00;;;3.03;;
84172;SDS011;74302;40.122;18.310;2024-02-21T09:16:51;4.00;;;2.25;;
84172;SDS011;74302;40.122;18.310;2024-02-21T09:18:34;4.95;;;1.40;;
84172;SDS011;74302;40.122;18.310;2024-02-21T09:20:18;4.53;;;1.70;;
84172;SDS011;74302;40.122;18.310;2024-02-21T09:22:02;4.03;;;2.22;;
84172;SDS011;74302;40.122;18.310;2024-02-21T09:25:31;4.85;;;2.58;;
84172;SDS011;74302;40.122;18.310;2024-02-21T09:27:14;5.60;;;2.17;;
84172;SDS011;74302;40.122;18.310;2024-02-21T09:28:58;3.55;;;2.15;;
84172;SDS011;74302;40.122;18.310;2024-02-21T09:30:42;4.35;;;1.95;;
84172;SDS011;74302;40.122;18.310;2024-02-21T09:34:09;6.47;;;2.65;;
84172;SDS011;74302;40.122;18.310;2024-02-21T09:35:53;4.85;;;2.15;;
84172;SDS011;74302;40.122;18.310;2024-02-21T09:39:21;2.60;;;1.60;;
84172;SDS011;74302;40.122;18.310;2024-02-21T09:41:08;3.58;;;2.35;;
84172;SDS011;74302;40.122;18.310;2024-02-21T09:43:02;7.53;;;2.63;;
84172;SDS011;74302;40.122;18.310;2024-02-21T09:44:48;4.07;;;1.98;;
84172;SDS011;74302;40.122;18.310;2024-02-21T09:46:36;3.58;;;2.17;;
84172;SDS011;74302;40.122;18.310;2024-02-21T09:48:25;3.40;;;1.83;;
84172;SDS011;74302;40.122;18.310;2024-02-21T09:50:19;5.18;;;2.85;;
84172;SDS011;74302;40.122;18.310;2024-02-21T09:52:04;3.88;;;2.08;;
84172;SDS011;74302;40.122;18.310;2024-02-21T09:53:49;3.95;;;2.05;;
84172;SDS011;74302;40.122;18.310;2024-02-21T09:55:36;4.38;;;2.08;;
84172;SDS011;74302;40.122;18.310;2024-02-21T09:57:24;5.25;;;2.47;;
84172;SDS011;74302;40.122;18.310;2024-02-21T09:59:10;5.00;;;1.92;;
84172;SDS011;74302;40.122;18.310;2024-02-21T10:00:54;4.30;;;2.33;;
84172;SDS011;74302;40.122;18.310;2024-02-21T10:02:39;4.82;;;2.92;;
84172;SDS011;74302;40.122;18.310;2024-02-21T10:04:23;4.78;;;3.22;;
84172;SDS011;74302;40.122;18.310;2024-02-21T10:06:07;3.95;;;2.30;;
84172;SDS011;74302;40.122;18.310;2024-02-21T10:07:50;4.95;;;2.40;;
84172;SDS011;74302;40.122;18.310;2024-02-21T10:09:35;2.53;;;1.70;;
84172;SDS011;74302;40.122;18.310;2024-02-21T10:11:22;2.85;;;1.33;;
84172;SDS011;74302;40.122;18.310;2024-02-21T10:13:07;3.17;;;2.05;;
84172;SDS011;74302;40.122;18.310;2024-02-21T10:14:59;4.78;;;2.20;;
84172;SDS011;74302;40.122;18.310;2024-02-21T10:16:44;5.05;;;3.03;;
84172;SDS011;74302;40.122;18.310;2024-02-21T10:18:30;3.72;;;1.90;;
84172;SDS011;74302;40.122;18.310;2024-02-21T10:20:15;2.50;;;1.65;;
84172;SDS011;74302;40.122;18.310;2024-02-21T10:21:59;3.05;;;1.92;;
84172;SDS011;74302;40.122;18.310;2024-02-21T10:23:46;8.60;;;2.45;;
84172;SDS011;74302;40.122;18.310;2024-02-21T10:25:31;4.18;;;1.83;;
84172;SDS011;74302;40.122;18.310;2024-02-21T10:27:15;3.65;;;2.13;;
84172;SDS011;74302;40.122;18.310;2024-02-21T10:29:00;3.25;;;1.92;;
84172;SDS011;74302;40.122;18.310;2024-02-21T10:30:49;3.20;;;2.22;;
84172;SDS011;74302;40.122;18.310;2024-02-21T10:32:34;2.25;;;1.48;;
84172;SDS011;74302;40.122;18.310;2024-02-21T10:36:07;5.60;;;2.13;;
84172;SDS011;74302;40.122;18.310;2024-02-21T10:37:52;4.05;;;1.60;;
84172;SDS011;74302;40.122;18.310;2024-02-21T10:39:38;5.28;;;2.35;;
84172;SDS011;74302;40.122;18.310;2024-02-21T10:41:24;4.47;;;1.70;;
84172;SDS011;74302;40.122;18.310;2024-02-21T10:43:11;2.75;;;1.80;;
84172;SDS011;74302;40.122;18.310;2024-02-21T10:45:01;5.40;;;2.85;;
84172;SDS011;74302;40.122;18.310;2024-02-21T10:46:46;5.55;;;2.25;;
84172;SDS011;74302;40.122;18.310;2024-02-21T10:48:32;1.60;;;1.15;;
84172;SDS011;74302;40.122;18.310;2024-02-21T10:50:26;3.33;;;2.28;;
84172;SDS011;74302;40.122;18.310;2024-02-21T10:52:17;9.70;;;2.08;;
84172;SDS011;74302;40.122;18.310;2024-02-21T10:54:12;3.72;;;2.17;;
84172;SDS011;74302;40.122;18.310;2024-02-21T10:56:06;5.13;;;2.42;;
84172;SDS011;74302;40.122;18.310;2024-02-21T10:57:59;6.50;;;2.92;;
84172;SDS011;74302;40.122;18.310;2024-02-21T10:59:44;4.88;;;2.40;;
84172;SDS011;74302;40.122;18.310;2024-02-21T11:01:30;3.17;;;2.17;;
84172;SDS011;74302;40.122;18.310;2024-02-21T11:03:14;10.07;;;3.35;;
84172;SDS011;74302;40.122;18.310;2024-02-21T11:04:58;4.20;;;2.35;;
84172;SDS011;74302;40.122;18.310;2024-02-21T11:06:43;4.13;;;2.40;;
84172;SDS011;74302;40.122;18.310;2024-02-21T11:08:27;5.20;;;2.92;;
84172;SDS011;74302;40.122;18.310;2024-02-21T11:10:20;2.88;;;2.28;;
84172;SDS011;74302;40.122;18.310;2024-02-21T11:12:06;9.63;;;3.20;;